createdAt,value
2022-08-24T00:01:49.623Z,6.40
2022-08-24T00:04:17.395Z,6.18
2022-08-24T00:06:44.505Z,6.00
2022-08-24T00:09:11.592Z,9.40
2022-08-24T00:11:38.625Z,5.18
2022-08-24T00:14:05.727Z,4.95
2022-08-24T00:16:32.927Z,8.02
2022-08-24T00:19:00.588Z,6.70
2022-08-24T00:21:27.743Z,9.82
2022-08-24T00:23:54.866Z,6.63
2022-08-24T00:26:28.433Z,7.47
2022-08-24T00:28:56.224Z,5.35
2022-08-24T00:31:23.341Z,6.30
2022-08-24T00:33:50.717Z,10.70
2022-08-24T00:36:17.792Z,6.65
2022-08-24T00:38:44.988Z,6.47
2022-08-24T00:41:14.230Z,5.30
2022-08-24T00:43:51.226Z,7.38
2022-08-24T00:46:20.342Z,7.03
2022-08-24T00:48:50.123Z,8.32
2022-08-24T00:51:20.260Z,4.53
2022-08-24T00:53:49.788Z,5.18
2022-08-24T00:56:19.927Z,9.65
2022-08-24T00:58:57.204Z,8.80
2022-08-24T01:01:24.552Z,6.93
2022-08-24T01:03:56.644Z,5.93
2022-08-24T01:06:24.262Z,7.13
2022-08-24T01:08:56.862Z,6.82
2022-08-24T01:11:25.291Z,6.00
2022-08-24T01:13:53.441Z,7.07
2022-08-24T01:16:41.430Z,6.03
2022-08-24T01:19:14.840Z,5.97
2022-08-24T01:21:46.595Z,6.53
2022-08-24T01:24:14.573Z,7.05
2022-08-24T01:26:46.989Z,8.68
2022-08-24T01:29:16.769Z,7.82
2022-08-24T01:31:44.028Z,10.82
2022-08-24T01:34:13.217Z,5.30
2022-08-24T01:36:42.737Z,7.82
2022-08-24T01:39:30.066Z,6.80
2022-08-24T01:41:57.734Z,6.10
2022-08-24T01:44:25.864Z,6.72
2022-08-24T01:46:53.789Z,5.82
2022-08-24T01:49:22.477Z,7.00
2022-08-24T01:51:49.557Z,7.72
2022-08-24T01:54:17.273Z,11.63
2022-08-24T01:56:44.460Z,8.73
2022-08-24T01:59:12.703Z,7.28
2022-08-24T02:01:41.925Z,5.95
2022-08-24T02:04:09.559Z,9.68
2022-08-24T02:06:37.003Z,6.55
2022-08-24T02:09:04.628Z,7.85
2022-08-24T02:11:32.204Z,8.20
2022-08-24T02:13:59.453Z,7.05
2022-08-24T02:16:28.612Z,10.43
2022-08-24T02:18:56.168Z,7.82
2022-08-24T02:21:23.406Z,7.63
2022-08-24T02:23:50.832Z,10.20
2022-08-24T02:26:18.043Z,12.00
2022-08-24T02:28:45.112Z,9.60
2022-08-24T02:31:13.353Z,11.02
2022-08-24T02:33:40.903Z,8.60
2022-08-24T02:36:21.765Z,10.77
2022-08-24T02:38:54.311Z,10.02
2022-08-24T02:41:21.962Z,8.27
2022-08-24T02:43:49.022Z,8.68
2022-08-24T02:46:20.051Z,11.05
2022-08-24T02:48:47.385Z,10.38
2022-08-24T02:51:32.218Z,9.05
2022-08-24T02:54:11.416Z,13.35
2022-08-24T02:56:38.505Z,8.57
2022-08-24T02:59:05.554Z,7.10
2022-08-24T03:01:32.699Z,8.02
2022-08-24T03:03:59.808Z,8.15
2022-08-24T03:06:26.909Z,10.13
2022-08-24T03:08:56.425Z,7.85
2022-08-24T03:11:27.725Z,8.63
2022-08-24T03:13:55.957Z,11.30
2022-08-24T03:16:23.045Z,8.68
2022-08-24T03:18:50.235Z,9.75
2022-08-24T03:21:17.537Z,8.70
2022-08-24T03:23:44.656Z,12.70
2022-08-24T03:26:12.300Z,12.27
2022-08-24T03:28:39.919Z,10.68
2022-08-24T03:31:07.404Z,9.00
2022-08-24T03:33:34.526Z,7.47
2022-08-24T03:36:01.656Z,10.07
2022-08-24T03:38:29.988Z,10.95
2022-08-24T03:40:57.163Z,9.95
2022-08-24T03:43:42.949Z,10.77
2022-08-24T03:46:12.360Z,12.20
2022-08-24T03:48:40.524Z,12.68
2022-08-24T03:51:10.932Z,7.40
2022-08-24T03:53:39.825Z,8.48
2022-08-24T03:56:10.182Z,9.52
2022-08-24T03:58:38.396Z,9.55
2022-08-24T04:01:05.972Z,9.57
2022-08-24T04:03:35.945Z,7.25
2022-08-24T04:06:03.123Z,10.45
2022-08-24T04:08:30.904Z,9.88
2022-08-24T04:10:58.070Z,10.85
2022-08-24T04:13:25.149Z,10.32
2022-08-24T04:15:52.963Z,8.05
2022-08-24T04:18:20.286Z,12.40
2022-08-24T04:20:47.419Z,12.93
2022-08-24T04:23:15.301Z,8.82
2022-08-24T04:25:43.322Z,9.45
2022-08-24T04:28:10.922Z,10.32
2022-08-24T04:30:42.198Z,11.98
2022-08-24T04:33:10.382Z,12.70
2022-08-24T04:35:38.892Z,14.20
2022-08-24T04:38:06.133Z,12.10
2022-08-24T04:40:33.317Z,12.32
2022-08-24T04:43:01.484Z,11.90
2022-08-24T04:45:29.441Z,12.48
2022-08-24T04:47:56.614Z,13.25
2022-08-24T04:50:24.710Z,16.73
2022-08-24T04:52:52.236Z,12.00
2022-08-24T04:55:19.657Z,10.30
2022-08-24T04:57:46.761Z,13.73
2022-08-24T05:00:14.078Z,12.98
2022-08-24T05:02:44.880Z,14.02
2022-08-24T05:05:12.564Z,11.70
2022-08-24T05:07:39.750Z,10.63
2022-08-24T05:10:07.560Z,9.95
2022-08-24T05:12:36.075Z,10.23
2022-08-24T05:15:03.222Z,9.02
2022-08-24T05:17:30.737Z,11.15
2022-08-24T05:19:58.711Z,12.38
2022-08-24T05:22:25.918Z,12.80
2022-08-24T05:24:53.006Z,13.23
2022-08-24T05:27:20.127Z,9.82
2022-08-24T05:29:53.358Z,5.18
2022-08-24T05:32:20.523Z,9.77
2022-08-24T05:34:47.695Z,8.60
2022-08-24T05:37:14.807Z,13.73
2022-08-24T05:39:42.193Z,9.75
2022-08-24T05:42:09.776Z,7.63
2022-08-24T05:44:37.507Z,11.43
2022-08-24T05:47:04.660Z,13.40
2022-08-24T05:49:31.788Z,10.88
2022-08-24T05:51:58.947Z,12.15
2022-08-24T05:54:26.922Z,12.73
2022-08-24T05:56:54.785Z,14.73
2022-08-24T05:59:22.596Z,17.55
2022-08-24T06:01:49.881Z,16.08
2022-08-24T06:04:16.991Z,13.73
2022-08-24T06:06:44.145Z,10.38
2022-08-24T06:09:15.689Z,16.50
2022-08-24T06:11:43.177Z,19.73
2022-08-24T06:14:12.129Z,12.32
2022-08-24T06:16:42.491Z,16.98
2022-08-24T06:19:10.966Z,17.33
2022-08-24T06:21:38.328Z,19.02
2022-08-24T06:24:06.099Z,17.92
2022-08-24T06:26:52.132Z,14.50
2022-08-24T06:29:19.673Z,14.40
2022-08-24T06:31:48.433Z,15.07
2022-08-24T06:34:21.895Z,15.07
2022-08-24T06:36:48.994Z,13.00
2022-08-24T06:39:16.081Z,13.95
2022-08-24T06:41:44.205Z,15.65
2022-08-24T06:44:11.343Z,18.92
2022-08-24T06:46:38.504Z,14.95
2022-08-24T06:49:05.729Z,12.55
2022-08-24T06:51:32.856Z,15.95
2022-08-24T06:54:00.801Z,14.32
2022-08-24T06:56:28.056Z,21.30
2022-08-24T06:58:55.431Z,20.00
2022-08-24T07:01:23.941Z,18.88
2022-08-24T07:03:51.452Z,12.23
2022-08-24T07:06:18.969Z,12.07
2022-08-24T07:08:46.103Z,9.07
2022-08-24T07:11:17.951Z,7.63
2022-08-24T07:13:47.321Z,14.88
2022-08-24T07:16:14.930Z,16.67
2022-08-24T07:18:44.083Z,12.55
2022-08-24T07:21:14.633Z,14.48
2022-08-24T07:23:42.820Z,11.23
2022-08-24T07:26:20.796Z,12.77
2022-08-24T07:28:48.973Z,11.75
2022-08-24T07:31:16.091Z,7.45
2022-08-24T07:33:43.313Z,18.67
2022-08-24T07:36:10.540Z,14.63
2022-08-24T07:38:44.103Z,10.73
2022-08-24T07:41:36.525Z,14.95
2022-08-24T07:43:58.638Z,8.70
2022-08-24T07:46:25.806Z,13.75
2022-08-24T07:49:00.205Z,7.55
2022-08-24T07:51:39.354Z,8.43
2022-08-24T07:54:13.414Z,13.15
2022-08-24T07:56:40.853Z,10.65
2022-08-24T07:59:12.439Z,12.27
2022-08-24T08:01:40.591Z,19.30
2022-08-24T08:04:07.843Z,14.38
2022-08-24T08:06:35.052Z,15.90
2022-08-24T08:09:04.622Z,16.13
2022-08-24T08:11:31.846Z,15.63
2022-08-24T08:13:58.908Z,19.10
2022-08-24T08:16:26.363Z,12.00
2022-08-24T08:19:09.315Z,11.77
2022-08-24T08:22:00.228Z,6.93
2022-08-24T08:24:27.346Z,8.75
2022-08-24T08:26:54.559Z,10.23
2022-08-24T08:29:21.723Z,10.63
2022-08-24T08:31:48.785Z,14.38
2022-08-24T08:34:17.056Z,13.57
2022-08-24T08:36:44.131Z,13.80
2022-08-24T08:39:12.747Z,8.30
2022-08-24T08:41:58.995Z,13.85
2022-08-24T08:44:33.158Z,9.73
2022-08-24T08:47:06.067Z,10.90
2022-08-24T08:49:55.216Z,11.30
2022-08-24T08:52:24.719Z,13.25
2022-08-24T08:54:58.677Z,13.20
2022-08-24T08:57:32.625Z,9.88
2022-08-24T09:00:06.185Z,8.40
2022-08-24T09:02:45.677Z,10.52
2022-08-24T09:05:32.677Z,8.75
2022-08-24T09:07:59.709Z,13.00
2022-08-24T09:10:33.723Z,7.68
2022-08-24T09:13:19.377Z,15.02
2022-08-24T09:15:49.561Z,8.57
2022-08-24T09:18:30.464Z,10.32
2022-08-24T09:21:14.585Z,13.95
2022-08-24T09:24:01.269Z,9.60
2022-08-24T09:26:29.055Z,9.95
2022-08-24T09:29:17.430Z,15.82
2022-08-24T09:31:45.264Z,9.52
2022-08-24T09:34:15.864Z,11.95
2022-08-24T09:37:01.529Z,8.52
2022-08-24T09:39:46.627Z,9.50
2022-08-24T09:42:13.665Z,8.32
2022-08-24T09:45:03.781Z,6.05
2022-08-24T09:47:49.388Z,8.95
2022-08-24T09:50:36.720Z,6.05
2022-08-24T09:53:03.986Z,7.30
2022-08-24T09:55:40.230Z,9.10
2022-08-24T09:58:18.815Z,14.55
2022-08-24T10:00:47.642Z,8.52
2022-08-24T10:03:17.750Z,6.55
2022-08-24T10:05:57.745Z,7.10
2022-08-24T10:08:34.168Z,11.60
2022-08-24T10:11:07.016Z,15.10
2022-08-24T10:13:45.020Z,7.97
2022-08-24T10:16:17.976Z,13.25
2022-08-24T10:18:45.031Z,15.50
2022-08-24T10:21:25.594Z,7.93
2022-08-24T10:23:58.860Z,9.13
2022-08-24T10:26:34.978Z,6.75
2022-08-24T10:29:20.563Z,11.65
2022-08-24T10:31:48.415Z,13.43
2022-08-24T10:34:24.492Z,12.65
2022-08-24T10:36:57.364Z,9.60
2022-08-24T10:39:43.305Z,11.82
2022-08-24T10:42:48.191Z,7.72
2022-08-24T10:45:15.265Z,7.43
2022-08-24T10:47:54.893Z,11.77
2022-08-24T10:50:40.890Z,9.57
2022-08-24T10:53:18.895Z,7.75
2022-08-24T10:55:46.115Z,10.73
2022-08-24T10:58:13.451Z,11.10
2022-08-24T11:00:41.105Z,8.05
2022-08-24T11:03:11.119Z,8.45
2022-08-24T11:05:41.187Z,10.45
2022-08-24T11:08:08.438Z,9.60
2022-08-24T11:10:39.574Z,9.18
2022-08-24T11:13:18.607Z,7.93
2022-08-24T11:15:51.450Z,9.35
2022-08-24T11:18:18.718Z,8.20
2022-08-24T11:20:47.978Z,6.40
2022-08-24T11:23:21.726Z,5.15
2022-08-24T11:26:03.002Z,6.85
2022-08-24T11:28:41.062Z,10.10
2022-08-24T11:31:30.916Z,8.98
2022-08-24T11:34:04.091Z,6.55
2022-08-24T11:36:34.793Z,5.78
2022-08-24T11:39:11.080Z,6.47
2022-08-24T11:41:45.985Z,7.80
2022-08-24T11:44:18.935Z,7.25
2022-08-24T11:46:56.903Z,6.60
2022-08-24T11:49:28.342Z,6.03
2022-08-24T11:52:01.981Z,7.80
2022-08-24T11:54:53.244Z,7.68
2022-08-24T11:57:26.558Z,5.93
2022-08-24T11:59:53.637Z,6.32
2022-08-24T12:02:32.129Z,6.55
2022-08-24T12:05:17.917Z,6.20
2022-08-24T12:08:04.132Z,6.95
2022-08-24T12:10:50.236Z,6.18
2022-08-24T12:13:17.292Z,6.55
2022-08-24T12:15:51.991Z,7.53
2022-08-24T12:18:25.323Z,9.15
2022-08-24T12:20:53.717Z,11.52
2022-08-24T12:23:39.269Z,6.20
2022-08-24T12:26:10.409Z,6.50
2022-08-24T12:28:40.698Z,4.82
2022-08-24T12:31:14.047Z,6.63
2022-08-24T12:33:44.854Z,7.03
2022-08-24T12:36:18.050Z,7.70
2022-08-24T12:38:49.171Z,8.57
2022-08-24T12:41:19.901Z,6.88
2022-08-24T12:43:54.215Z,5.55
2022-08-24T12:46:23.070Z,8.77
2022-08-24T12:48:57.156Z,6.35
2022-08-24T12:51:24.213Z,8.82
2022-08-24T12:53:51.305Z,6.10
2022-08-24T12:56:27.282Z,6.88
2022-08-24T12:59:02.811Z,5.88
2022-08-24T13:01:35.766Z,7.55
2022-08-24T13:04:23.250Z,6.75
2022-08-24T13:06:56.335Z,5.93
2022-08-24T13:09:32.548Z,6.47
2022-08-24T13:12:00.965Z,4.72
2022-08-24T13:14:29.868Z,5.97
2022-08-24T13:16:56.900Z,4.78
2022-08-24T13:19:23.964Z,7.75
2022-08-24T13:21:54.423Z,7.38
2022-08-24T13:24:30.988Z,5.32
2022-08-24T13:27:07.147Z,6.78
2022-08-24T13:29:34.761Z,4.60
2022-08-24T13:32:02.031Z,6.15
2022-08-24T13:34:38.120Z,5.18
2022-08-24T13:37:12.182Z,8.57
2022-08-24T13:39:39.240Z,6.63
2022-08-24T13:42:24.985Z,7.25
2022-08-24T13:45:13.530Z,6.63
2022-08-24T13:47:48.167Z,11.43
2022-08-24T13:50:34.160Z,7.93
2022-08-24T13:53:18.819Z,4.88
2022-08-24T13:55:48.491Z,5.20
2022-08-24T13:58:26.912Z,8.07
2022-08-24T14:01:07.419Z,5.45
2022-08-24T14:03:53.305Z,6.82
2022-08-24T14:06:24.471Z,8.55
2022-08-24T14:09:00.039Z,7.53
2022-08-24T14:11:47.628Z,6.35
2022-08-24T14:14:34.506Z,6.20
2022-08-24T14:17:35.488Z,6.03
2022-08-24T14:20:06.365Z,6.20
2022-08-24T14:22:36.709Z,5.53
2022-08-24T14:25:16.916Z,7.78
2022-08-24T14:27:49.267Z,6.20
2022-08-24T14:30:19.365Z,5.65
2022-08-24T14:32:58.735Z,4.80
2022-08-24T14:35:31.084Z,7.55
2022-08-24T14:38:12.791Z,6.40
2022-08-24T14:40:58.157Z,8.32
2022-08-24T14:43:43.954Z,6.80
2022-08-24T14:46:19.755Z,7.07
2022-08-24T14:48:46.838Z,10.45
2022-08-24T14:51:16.678Z,5.20
2022-08-24T14:53:43.717Z,8.70
2022-08-24T14:56:31.619Z,5.35
2022-08-24T14:59:28.124Z,8.10
2022-08-24T15:02:18.540Z,5.28
2022-08-24T15:04:52.781Z,7.28
2022-08-24T15:07:19.827Z,7.78
2022-08-24T15:09:47.317Z,5.18
2022-08-24T15:12:23.556Z,5.85
2022-08-24T15:14:55.527Z,7.47
2022-08-24T15:17:26.514Z,5.95
2022-08-24T15:20:01.286Z,5.20
2022-08-24T15:22:40.318Z,5.47
2022-08-24T15:25:14.137Z,3.28
2022-08-24T15:27:46.038Z,5.25
2022-08-24T15:30:22.592Z,6.55
2022-08-24T15:32:55.035Z,5.22
2022-08-24T15:35:31.458Z,7.88
2022-08-24T15:37:59.022Z,5.15
2022-08-24T15:40:31.633Z,7.03
2022-08-24T15:43:04.058Z,6.40
2022-08-24T15:45:31.989Z,7.68
2022-08-24T15:48:00.274Z,4.70
2022-08-24T15:50:35.647Z,6.10
2022-08-24T15:53:07.298Z,4.78
2022-08-24T15:55:36.437Z,8.02
2022-08-24T15:58:15.281Z,7.68
2022-08-24T16:01:01.254Z,6.07
2022-08-24T16:03:45.003Z,9.55
2022-08-24T16:06:18.119Z,5.13
2022-08-24T16:08:56.012Z,6.72
2022-08-24T16:11:28.601Z,5.07
2022-08-24T16:13:55.818Z,9.25
2022-08-24T16:16:32.393Z,6.65
2022-08-24T16:19:02.150Z,6.60
2022-08-24T16:21:47.409Z,4.80
2022-08-24T16:24:25.491Z,7.00
2022-08-24T16:26:54.823Z,6.07
2022-08-24T16:29:37.375Z,8.75
2022-08-24T16:32:21.868Z,10.27
2022-08-24T16:34:51.902Z,4.75
2022-08-24T16:37:20.404Z,6.60
2022-08-24T16:39:48.172Z,5.30
2022-08-24T16:42:26.931Z,4.10
2022-08-24T16:44:54.246Z,10.52
2022-08-24T16:47:22.064Z,6.13
2022-08-24T16:49:49.583Z,4.97
2022-08-24T16:52:17.319Z,6.32
2022-08-24T16:54:44.390Z,4.75
2022-08-24T16:57:16.168Z,5.97
2022-08-24T16:59:44.427Z,5.68
2022-08-24T17:02:12.330Z,6.95
2022-08-24T17:04:40.165Z,5.53
2022-08-24T17:07:08.502Z,5.13
2022-08-24T17:09:39.699Z,5.03
2022-08-24T17:12:08.200Z,5.78
2022-08-24T17:14:37.546Z,5.10
2022-08-24T17:17:06.178Z,6.00
2022-08-24T17:19:34.653Z,9.23
2022-08-24T17:22:01.772Z,6.18
2022-08-24T17:24:29.173Z,5.97
2022-08-24T17:26:56.888Z,6.05
2022-08-24T17:29:24.741Z,8.88
2022-08-24T17:31:52.391Z,5.38
2022-08-24T17:34:21.178Z,8.00
2022-08-24T17:36:53.397Z,6.90
2022-08-24T17:39:21.050Z,6.93
2022-08-24T17:41:48.510Z,5.75
2022-08-24T17:44:19.581Z,5.35
2022-08-24T17:46:49.188Z,7.00
2022-08-24T17:49:16.268Z,7.38
2022-08-24T17:51:43.705Z,9.98
2022-08-24T17:54:10.801Z,6.88
2022-08-24T17:56:40.981Z,6.97
2022-08-24T17:59:24.956Z,9.23
2022-08-24T18:02:12.328Z,7.88
2022-08-24T18:04:40.645Z,8.27
2022-08-24T18:07:12.532Z,8.55
2022-08-24T18:09:41.613Z,8.23
2022-08-24T18:12:09.376Z,8.90
2022-08-24T18:14:36.966Z,9.93
2022-08-24T18:17:05.956Z,8.10
2022-08-24T18:19:33.879Z,10.80
2022-08-24T18:22:01.838Z,12.13
2022-08-24T18:24:33.400Z,11.50
2022-08-24T18:27:10.370Z,17.75
2022-08-24T18:29:39.215Z,18.40
2022-08-24T18:32:07.140Z,22.58
2022-08-24T18:34:34.693Z,20.70
2022-08-24T18:37:01.973Z,18.58
2022-08-24T18:39:29.114Z,26.30
2022-08-24T18:41:56.628Z,18.30
2022-08-24T18:44:27.222Z,17.27
2022-08-24T18:46:58.412Z,17.90
2022-08-24T18:49:25.478Z,11.75
2022-08-24T18:51:52.685Z,19.52
2022-08-24T18:54:21.693Z,17.38
2022-08-24T18:56:49.639Z,14.90
2022-08-24T18:59:18.528Z,12.40
2022-08-24T19:02:05.939Z,13.57
2022-08-24T19:04:33.601Z,10.73
2022-08-24T19:07:00.904Z,11.48
2022-08-24T19:09:32.044Z,12.55
2022-08-24T19:12:01.245Z,12.48
2022-08-24T19:14:28.376Z,14.30
2022-08-24T19:16:55.467Z,11.43
2022-08-24T19:19:22.733Z,11.10
2022-08-24T19:21:50.066Z,15.45
2022-08-24T19:24:18.957Z,12.88
2022-08-24T19:26:46.025Z,14.57
2022-08-24T19:29:13.151Z,16.77
2022-08-24T19:31:40.292Z,29.98
2022-08-24T19:34:07.547Z,33.60
2022-08-24T19:36:34.647Z,36.05
2022-08-24T19:39:01.942Z,31.35
2022-08-24T19:41:36.749Z,28.27
2022-08-24T19:44:27.234Z,15.23
2022-08-24T19:46:55.651Z,16.17
2022-08-24T19:49:22.897Z,27.23
2022-08-24T19:51:50.948Z,14.73
2022-08-24T19:54:18.056Z,20.73
2022-08-24T19:56:45.447Z,19.52
2022-08-24T19:59:34.367Z,10.93
2022-08-24T20:02:01.733Z,11.65
2022-08-24T20:04:28.946Z,11.15
2022-08-24T20:06:56.210Z,10.88
2022-08-24T20:09:23.742Z,8.38
2022-08-24T20:11:51.733Z,11.05
2022-08-24T20:14:18.813Z,16.13
2022-08-24T20:16:46.119Z,11.30
2022-08-24T20:19:13.393Z,14.63
2022-08-24T20:21:40.754Z,9.75
2022-08-24T20:24:08.636Z,13.23
2022-08-24T20:26:39.152Z,10.45
2022-08-24T20:29:06.381Z,14.23
2022-08-24T20:31:33.494Z,10.38
2022-08-24T20:34:00.907Z,11.25
2022-08-24T20:36:27.997Z,13.80
2022-08-24T20:38:56.735Z,10.65
2022-08-24T20:41:24.059Z,10.07
2022-08-24T20:43:51.146Z,12.18
2022-08-24T20:46:18.310Z,8.60
2022-08-24T20:48:46.166Z,12.73
2022-08-24T20:51:22.856Z,12.25
2022-08-24T20:53:49.941Z,15.35
2022-08-24T20:56:30.784Z,15.65
2022-08-24T20:58:58.435Z,19.80
2022-08-24T21:01:25.572Z,17.42
2022-08-24T21:03:53.010Z,19.77
2022-08-24T21:06:20.392Z,22.50
2022-08-24T21:08:48.818Z,18.15
2022-08-24T21:11:16.213Z,23.40
2022-08-24T21:13:43.424Z,29.05
2022-08-24T21:16:14.894Z,21.90
2022-08-24T21:18:46.843Z,16.00
2022-08-24T21:21:14.048Z,19.75
2022-08-24T21:23:41.139Z,17.83
2022-08-24T21:26:09.776Z,15.60
2022-08-24T21:28:37.299Z,14.93
2022-08-24T21:31:06.420Z,13.02
2022-08-24T21:33:52.718Z,14.57
2022-08-24T21:36:23.208Z,10.52
2022-08-24T21:38:51.865Z,12.68
2022-08-24T21:41:20.743Z,9.75
2022-08-24T21:43:47.847Z,12.52
2022-08-24T21:46:15.170Z,15.18
2022-08-24T21:48:42.333Z,10.27
2022-08-24T21:51:09.781Z,13.85
2022-08-24T21:53:37.081Z,12.60
2022-08-24T21:56:07.261Z,9.95
2022-08-24T21:58:34.326Z,13.65
2022-08-24T22:01:03.173Z,13.15
2022-08-24T22:03:31.524Z,11.85
2022-08-24T22:06:08.423Z,9.30
2022-08-24T22:08:35.595Z,10.50
2022-08-24T22:11:02.675Z,13.38
2022-08-24T22:13:29.732Z,15.38
2022-08-24T22:15:56.853Z,11.95
2022-08-24T22:18:24.163Z,8.70
2022-08-24T22:20:51.251Z,10.48
2022-08-24T22:23:18.539Z,12.65
2022-08-24T22:25:46.050Z,15.65
2022-08-24T22:28:13.077Z,14.52
2022-08-24T22:30:40.170Z,14.52
2022-08-24T22:33:07.229Z,10.60
2022-08-24T22:35:34.379Z,10.00
2022-08-24T22:38:12.085Z,10.35
2022-08-24T22:40:39.313Z,11.02
2022-08-24T22:43:06.500Z,14.45
2022-08-24T22:45:33.748Z,11.63
2022-08-24T22:48:00.785Z,12.50
2022-08-24T22:50:28.000Z,12.73
2022-08-24T22:52:55.085Z,10.73
2022-08-24T22:55:23.416Z,8.07
2022-08-24T22:57:51.398Z,11.00
2022-08-24T23:00:18.706Z,8.85
2022-08-24T23:02:45.775Z,11.38
2022-08-24T23:05:13.299Z,9.48
2022-08-24T23:07:40.366Z,10.70
2022-08-24T23:10:07.894Z,11.15
2022-08-24T23:12:35.010Z,10.77
2022-08-24T23:15:02.243Z,12.02
2022-08-24T23:17:29.345Z,10.57
2022-08-24T23:20:06.168Z,9.65
2022-08-24T23:22:35.194Z,8.80
2022-08-24T23:25:02.314Z,9.05
2022-08-24T23:27:32.895Z,11.70
2022-08-24T23:30:05.957Z,9.13
2022-08-24T23:32:33.612Z,9.82
2022-08-24T23:35:00.677Z,10.35
2022-08-24T23:37:27.775Z,12.10
2022-08-24T23:39:54.917Z,9.70
2022-08-24T23:42:22.042Z,11.15
2022-08-24T23:44:49.143Z,8.77
2022-08-24T23:47:16.692Z,11.02
2022-08-24T23:49:43.954Z,12.80
2022-08-24T23:52:26.400Z,10.50
2022-08-24T23:54:54.297Z,9.23
2022-08-24T23:57:21.363Z,9.98
2022-08-24T23:59:48.527Z,11.02
